createdAt,value
2023-04-09T00:00:24.489Z,99582.54
2023-04-09T00:03:13.900Z,99580.30
2023-04-09T00:05:43.810Z,99581.27
2023-04-09T00:08:12.886Z,99578.80
2023-04-09T00:10:42.132Z,99580.20
2023-04-09T00:13:11.049Z,99581.11
2023-04-09T00:15:39.666Z,99577.65
2023-04-09T00:18:08.556Z,99579.23
2023-04-09T00:20:37.373Z,99575.27
2023-04-09T00:23:06.453Z,99573.38
2023-04-09T00:25:35.558Z,99576.79
2023-04-09T00:28:04.591Z,99582.48
2023-04-09T00:30:33.300Z,99579.08
2023-04-09T00:33:02.458Z,99573.09
2023-04-09T00:35:31.692Z,99569.04
2023-04-09T00:38:00.498Z,99573.65
2023-04-09T00:40:29.969Z,99575.51
2023-04-09T00:42:58.636Z,99575.39
2023-04-09T00:45:27.679Z,99574.86
2023-04-09T00:47:57.187Z,99577.30
2023-04-09T00:50:26.430Z,99581.84
2023-04-09T00:52:55.994Z,99568.83
2023-04-09T00:55:25.962Z,99568.02
2023-04-09T00:57:54.952Z,99565.70
2023-04-09T01:00:23.558Z,99567.27
2023-04-09T01:02:53.689Z,99564.77
2023-04-09T01:05:22.591Z,99565.48
2023-04-09T01:08:29.762Z,99561.19
2023-04-09T01:11:27.967Z,99561.06
2023-04-09T01:14:03.666Z,99561.91
2023-04-09T01:16:37.336Z,99557.95
2023-04-09T01:19:32.274Z,99560.95
2023-04-09T01:22:02.961Z,99569.98
2023-04-09T01:24:51.775Z,99578.10
2023-04-09T01:27:38.557Z,99586.46
2023-04-09T01:30:09.402Z,99586.17
2023-04-09T01:32:39.698Z,99582.13
2023-04-09T01:35:09.226Z,99579.42
2023-04-09T01:37:41.007Z,99587.98
2023-04-09T01:40:10.162Z,99590.31
2023-04-09T01:42:40.693Z,99587.14
2023-04-09T01:45:12.550Z,99590.00
2023-04-09T01:47:41.988Z,99583.13
2023-04-09T01:50:11.821Z,99586.41
2023-04-09T01:52:41.845Z,99591.27
2023-04-09T01:55:10.418Z,99594.25
2023-04-09T01:57:39.131Z,99594.33
2023-04-09T02:00:09.989Z,99593.77
2023-04-09T02:02:56.072Z,99593.88
2023-04-09T02:05:29.823Z,99590.38
2023-04-09T02:08:03.023Z,99585.42
2023-04-09T02:10:35.304Z,99589.35
2023-04-09T02:13:06.503Z,99590.70
2023-04-09T02:15:39.571Z,99590.89
2023-04-09T02:18:22.357Z,99593.48
2023-04-09T02:20:52.786Z,99595.55
2023-04-09T02:23:22.627Z,99599.23
2023-04-09T02:25:52.558Z,99596.01
2023-04-09T02:28:21.331Z,99601.17
2023-04-09T02:30:50.494Z,99602.52
2023-04-09T02:33:19.039Z,99603.55
2023-04-09T02:35:47.905Z,99609.27
2023-04-09T02:38:17.050Z,99614.95
2023-04-09T02:40:45.829Z,99621.05
2023-04-09T02:43:14.688Z,99621.77
2023-04-09T02:45:43.740Z,99625.79
2023-04-09T02:48:12.281Z,99623.04
2023-04-09T02:50:42.174Z,99621.13
2023-04-09T02:53:11.563Z,99618.59
2023-04-09T02:55:40.105Z,99614.88
2023-04-09T02:58:08.817Z,99613.85
2023-04-09T03:00:38.090Z,99615.39
2023-04-09T03:03:06.941Z,99621.23
2023-04-09T03:05:36.823Z,99617.08
2023-04-09T03:08:06.216Z,99620.15
2023-04-09T03:10:35.185Z,99619.84
2023-04-09T03:13:03.928Z,99617.96
2023-04-09T03:15:32.778Z,99615.58
2023-04-09T03:18:02.057Z,99616.06
2023-04-09T03:20:31.326Z,99624.27
2023-04-09T03:23:00.184Z,99630.91
2023-04-09T03:25:36.886Z,99628.88
2023-04-09T03:28:12.708Z,99625.73
2023-04-09T03:30:53.624Z,99624.55
2023-04-09T03:33:22.570Z,99621.40
2023-04-09T03:36:01.277Z,99616.77
2023-04-09T03:38:37.807Z,99618.53
2023-04-09T03:41:11.388Z,99617.40
2023-04-09T03:43:40.878Z,99615.39
2023-04-09T03:46:17.370Z,99616.58
2023-04-09T03:48:47.368Z,99617.98
2023-04-09T03:51:16.560Z,99617.52
2023-04-09T03:53:50.324Z,99613.55
2023-04-09T03:56:21.476Z,99612.41
2023-04-09T03:58:50.177Z,99606.70
2023-04-09T04:01:19.728Z,99608.39
2023-04-09T04:03:56.139Z,99601.05
2023-04-09T04:06:27.687Z,99600.72
2023-04-09T04:09:23.974Z,99599.98
2023-04-09T04:12:13.772Z,99603.95
2023-04-09T04:14:51.827Z,99605.40
2023-04-09T04:17:26.916Z,99607.13
2023-04-09T04:19:55.972Z,99606.92
2023-04-09T04:22:26.196Z,99607.20
2023-04-09T04:24:58.249Z,99607.95
2023-04-09T04:27:27.222Z,99605.68
2023-04-09T04:29:59.109Z,99603.98
2023-04-09T04:32:49.509Z,99605.88
2023-04-09T04:35:18.791Z,99617.75
2023-04-09T04:37:51.310Z,99618.56
2023-04-09T04:40:20.508Z,99619.11
2023-04-09T04:42:51.765Z,99624.06
2023-04-09T04:45:20.952Z,99624.00
2023-04-09T04:47:53.930Z,99628.98
2023-04-09T04:50:22.508Z,99632.24
2023-04-09T04:52:58.387Z,99633.45
2023-04-09T04:55:29.709Z,99634.30
2023-04-09T04:57:59.222Z,99634.67
2023-04-09T05:00:30.001Z,99633.20
2023-04-09T05:03:02.236Z,99636.34
2023-04-09T05:05:54.220Z,99634.32
2023-04-09T05:08:24.170Z,99633.05
2023-04-09T05:10:56.774Z,99634.44
2023-04-09T05:13:29.677Z,99632.20
2023-04-09T05:15:58.972Z,99630.02
2023-04-09T05:18:27.518Z,99630.98
2023-04-09T05:20:56.595Z,99628.50
2023-04-09T05:23:26.264Z,99629.90
2023-04-09T05:25:54.782Z,99625.50
2023-04-09T05:28:38.643Z,99625.75
2023-04-09T05:31:13.603Z,99630.98
2023-04-09T05:33:48.963Z,99629.20
2023-04-09T05:36:21.663Z,99626.37
2023-04-09T05:38:51.051Z,99630.19
2023-04-09T05:41:19.807Z,99624.96
2023-04-09T05:44:02.941Z,99625.89
2023-04-09T05:46:31.830Z,99629.73
2023-04-09T05:49:00.937Z,99634.65
2023-04-09T05:51:31.102Z,99640.91
2023-04-09T05:53:59.962Z,99640.92
2023-04-09T05:56:29.843Z,99638.80
2023-04-09T05:58:59.241Z,99639.22
2023-04-09T06:01:27.922Z,99636.45
2023-04-09T06:03:58.420Z,99640.97
2023-04-09T06:06:31.037Z,99639.73
2023-04-09T06:09:01.793Z,99644.19
2023-04-09T06:11:31.943Z,99640.65
2023-04-09T06:14:00.914Z,99647.43
2023-04-09T06:16:30.325Z,99646.71
2023-04-09T06:18:59.147Z,99651.63
2023-04-09T06:21:28.212Z,99649.20
2023-04-09T06:23:57.210Z,99648.70
2023-04-09T06:26:26.304Z,99652.46
2023-04-09T06:28:55.176Z,99647.30
2023-04-09T06:31:23.894Z,99645.31
2023-04-09T06:33:52.901Z,99649.54
2023-04-09T06:36:21.856Z,99642.89
2023-04-09T06:38:50.853Z,99643.80
2023-04-09T06:41:27.156Z,99648.98
2023-04-09T06:43:56.174Z,99651.10
2023-04-09T06:46:24.940Z,99652.35
2023-04-09T06:48:54.428Z,99651.56
2023-04-09T06:51:23.315Z,99652.46
2023-04-09T06:53:52.061Z,99648.84
2023-04-09T06:56:21.415Z,99650.56
2023-04-09T06:58:50.077Z,99648.98
2023-04-09T07:01:18.688Z,99652.50
2023-04-09T07:03:47.866Z,99654.09
2023-04-09T07:06:16.877Z,99656.13
2023-04-09T07:08:45.592Z,99658.98
2023-04-09T07:11:17.491Z,99654.52
2023-04-09T07:13:46.525Z,99653.42
2023-04-09T07:16:15.625Z,99655.91
2023-04-09T07:18:44.252Z,99658.71
2023-04-09T07:21:13.563Z,99660.36
2023-04-09T07:23:42.082Z,99659.89
2023-04-09T07:26:11.080Z,99659.44
2023-04-09T07:28:40.966Z,99660.64
2023-04-09T07:31:09.946Z,99659.66
2023-04-09T07:33:39.111Z,99660.96
2023-04-09T07:36:08.999Z,99660.49
2023-04-09T07:38:37.922Z,99658.77
2023-04-09T07:41:06.680Z,99652.64
2023-04-09T07:43:35.613Z,99657.16
2023-04-09T07:46:04.515Z,99658.77
2023-04-09T07:48:33.660Z,99656.95
2023-04-09T07:51:02.689Z,99653.90
2023-04-09T07:53:31.737Z,99659.77
2023-04-09T07:56:00.648Z,99659.87
2023-04-09T07:58:29.360Z,99660.23
2023-04-09T08:00:58.251Z,99661.42
2023-04-09T08:03:28.063Z,99658.58
2023-04-09T08:05:57.099Z,99653.80
2023-04-09T08:08:26.011Z,99651.70
2023-04-09T08:10:54.872Z,99651.67
2023-04-09T08:13:25.784Z,99651.64
2023-04-09T08:15:54.865Z,99651.10
2023-04-09T08:18:23.948Z,99656.13
2023-04-09T08:20:52.861Z,99654.98
2023-04-09T08:23:21.934Z,99652.69
2023-04-09T08:25:50.815Z,99651.12
2023-04-09T08:28:20.265Z,99650.91
2023-04-09T08:30:49.071Z,99651.61
2023-04-09T08:33:18.249Z,99652.92
2023-04-09T08:35:47.037Z,99653.76
2023-04-09T08:38:16.674Z,99661.32
2023-04-09T08:40:45.711Z,99662.28
2023-04-09T08:43:19.573Z,99658.25
2023-04-09T08:45:48.629Z,99658.40
2023-04-09T08:48:18.982Z,99663.25
2023-04-09T08:50:47.554Z,99668.73
2023-04-09T08:53:18.293Z,99666.02
2023-04-09T08:55:47.174Z,99665.98
2023-04-09T08:58:16.020Z,99665.77
2023-04-09T09:00:45.234Z,99667.16
2023-04-09T09:03:14.903Z,99675.29
2023-04-09T09:05:46.495Z,99678.55
2023-04-09T09:08:24.636Z,99682.17
2023-04-09T09:10:53.703Z,99682.44
2023-04-09T09:13:25.267Z,99686.06
2023-04-09T09:16:13.933Z,99688.65
2023-04-09T09:18:44.602Z,99689.42
2023-04-09T09:21:18.355Z,99684.77
2023-04-09T09:23:48.821Z,99684.05
2023-04-09T09:26:21.204Z,99681.58
2023-04-09T09:28:51.695Z,99673.01
2023-04-09T09:31:22.872Z,99667.23
2023-04-09T09:33:52.318Z,99668.95
2023-04-09T09:36:35.641Z,99674.13
2023-04-09T09:39:10.346Z,99675.74
2023-04-09T09:41:42.255Z,99678.39
2023-04-09T09:44:13.522Z,99671.86
2023-04-09T09:46:45.400Z,99676.03
2023-04-09T09:49:14.374Z,99672.34
2023-04-09T09:51:43.829Z,99667.28
2023-04-09T09:54:13.378Z,99666.40
2023-04-09T09:56:44.027Z,99665.48
2023-04-09T09:59:23.873Z,99655.64
2023-04-09T10:02:01.648Z,99654.81
2023-04-09T10:04:36.446Z,99656.77
2023-04-09T10:07:07.509Z,99658.81
2023-04-09T10:09:38.461Z,99658.03
2023-04-09T10:12:10.036Z,99658.55
2023-04-09T10:14:40.362Z,99655.67
2023-04-09T10:17:09.432Z,99658.47
2023-04-09T10:19:46.985Z,99660.28
2023-04-09T10:22:21.758Z,99662.27
2023-04-09T10:24:51.782Z,99663.69
2023-04-09T10:27:21.569Z,99659.17
2023-04-09T10:29:52.743Z,99655.95
2023-04-09T10:32:28.708Z,99660.95
2023-04-09T10:34:59.952Z,99661.73
2023-04-09T10:37:29.193Z,99661.70
2023-04-09T10:39:58.058Z,99660.75
2023-04-09T10:42:42.382Z,99663.51
2023-04-09T10:45:15.634Z,99660.69
2023-04-09T10:47:46.849Z,99655.36
2023-04-09T10:50:28.115Z,99652.96
2023-04-09T10:52:58.830Z,99654.68
2023-04-09T10:55:30.982Z,99656.48
2023-04-09T10:58:00.126Z,99648.55
2023-04-09T11:00:28.963Z,99649.18
2023-04-09T11:03:04.928Z,99644.30
2023-04-09T11:05:40.598Z,99645.12
2023-04-09T11:08:14.899Z,99643.16
2023-04-09T11:10:45.555Z,99641.60
2023-04-09T11:13:16.888Z,99645.29
2023-04-09T11:15:46.270Z,99648.05
2023-04-09T11:18:28.966Z,99648.70
2023-04-09T11:21:04.036Z,99649.01
2023-04-09T11:23:34.002Z,99646.15
2023-04-09T11:26:03.058Z,99649.67
2023-04-09T11:28:31.906Z,99651.63
2023-04-09T11:31:00.543Z,99651.59
2023-04-09T11:33:34.014Z,99646.41
2023-04-09T11:36:06.145Z,99647.77
2023-04-09T11:38:37.286Z,99646.63
2023-04-09T11:41:05.776Z,99646.55
2023-04-09T11:43:37.123Z,99640.79
2023-04-09T11:46:08.374Z,99640.74
2023-04-09T11:48:37.322Z,99640.80
2023-04-09T11:51:06.888Z,99638.55
2023-04-09T11:53:37.776Z,99635.91
2023-04-09T11:56:07.705Z,99637.45
2023-04-09T11:58:36.905Z,99633.58
2023-04-09T12:01:05.850Z,99633.39
2023-04-09T12:03:35.052Z,99635.27
2023-04-09T12:06:05.791Z,99637.46
2023-04-09T12:08:36.912Z,99639.35
2023-04-09T12:11:13.211Z,99638.67
2023-04-09T12:13:45.088Z,99640.76
2023-04-09T12:16:14.617Z,99634.08
2023-04-09T12:18:43.957Z,99633.20
2023-04-09T12:21:13.177Z,99632.30
2023-04-09T12:23:41.678Z,99635.61
2023-04-09T12:26:11.114Z,99640.22
2023-04-09T12:28:39.880Z,99644.53
2023-04-09T12:31:12.399Z,99648.29
2023-04-09T12:33:41.549Z,99646.64
2023-04-09T12:36:10.191Z,99649.20
2023-04-09T12:38:38.952Z,99649.41
2023-04-09T12:41:08.118Z,99645.40
2023-04-09T12:43:36.902Z,99640.10
2023-04-09T12:46:05.942Z,99637.30
2023-04-09T12:48:35.714Z,99638.31
2023-04-09T12:51:04.480Z,99635.80
2023-04-09T12:53:33.319Z,99631.73
2023-04-09T12:56:02.533Z,99631.61
2023-04-09T12:58:31.622Z,99629.56
2023-04-09T13:01:01.732Z,99628.95
2023-04-09T13:03:31.191Z,99631.26
2023-04-09T13:05:59.846Z,99632.79
2023-04-09T13:08:28.676Z,99634.35
2023-04-09T13:10:57.705Z,99633.44
2023-04-09T13:13:26.292Z,99626.06
2023-04-09T13:15:54.979Z,99627.52
2023-04-09T13:18:24.228Z,99630.75
2023-04-09T13:20:52.752Z,99632.32
2023-04-09T13:23:21.380Z,99632.99
2023-04-09T13:25:50.668Z,99632.70
2023-04-09T13:28:19.129Z,99634.88
2023-04-09T13:30:48.473Z,99637.13
2023-04-09T13:33:17.737Z,99637.70
2023-04-09T13:35:46.180Z,99636.44
2023-04-09T13:38:14.837Z,99633.80
2023-04-09T13:40:43.736Z,99635.66
2023-04-09T13:43:12.435Z,99630.80
2023-04-09T13:45:41.828Z,99630.53
2023-04-09T13:48:12.289Z,99634.56
2023-04-09T13:50:42.028Z,99633.63
2023-04-09T13:53:10.709Z,99629.19
2023-04-09T13:55:40.201Z,99630.16
2023-04-09T13:58:08.724Z,99632.44
2023-04-09T14:00:38.581Z,99630.48
2023-04-09T14:03:08.254Z,99629.44
2023-04-09T14:05:37.142Z,99629.71
2023-04-09T14:08:05.694Z,99626.65
2023-04-09T14:10:34.788Z,99622.02
2023-04-09T14:13:06.885Z,99624.29
2023-04-09T14:15:35.876Z,99623.02
2023-04-09T14:18:04.514Z,99624.10
2023-04-09T14:20:35.186Z,99622.50
2023-04-09T14:23:04.455Z,99620.55
2023-04-09T14:25:33.063Z,99612.98
2023-04-09T14:28:02.090Z,99610.71
2023-04-09T14:30:31.446Z,99612.36
2023-04-09T14:33:00.275Z,99610.18
2023-04-09T14:35:29.161Z,99604.73
2023-04-09T14:37:58.860Z,99602.29
2023-04-09T14:40:27.454Z,99604.13
2023-04-09T14:42:55.973Z,99604.23
2023-04-09T14:45:25.087Z,99603.27
2023-04-09T14:47:54.124Z,99604.24
2023-04-09T14:50:22.652Z,99604.41
2023-04-09T14:52:53.084Z,99609.60
2023-04-09T14:55:22.050Z,99611.52
2023-04-09T14:57:50.544Z,99610.08
2023-04-09T15:00:19.885Z,99611.17
2023-04-09T15:02:49.262Z,99607.70
2023-04-09T15:05:17.969Z,99608.16
2023-04-09T15:07:47.265Z,99607.55
2023-04-09T15:10:16.184Z,99608.56
2023-04-09T15:12:44.943Z,99606.52
2023-04-09T15:15:16.842Z,99603.44
2023-04-09T15:17:45.340Z,99607.49
2023-04-09T15:20:14.296Z,99607.91
2023-04-09T15:22:43.290Z,99609.20
2023-04-09T15:25:13.715Z,99607.17
2023-04-09T15:27:43.080Z,99608.88
2023-04-09T15:30:12.320Z,99611.36
2023-04-09T15:32:40.793Z,99612.09
2023-04-09T15:35:09.569Z,99607.27
2023-04-09T15:37:38.576Z,99610.60
2023-04-09T15:40:07.877Z,99613.94
2023-04-09T15:42:36.722Z,99608.92
2023-04-09T15:45:06.592Z,99609.77
2023-04-09T15:47:35.477Z,99610.77
2023-04-09T15:50:04.083Z,99606.52
2023-04-09T15:52:33.676Z,99607.53
2023-04-09T15:55:02.552Z,99608.25
2023-04-09T15:57:31.095Z,99608.26
2023-04-09T16:00:00.251Z,99604.76
2023-04-09T16:02:29.054Z,99604.58
2023-04-09T16:04:57.729Z,99605.09
2023-04-09T16:07:27.055Z,99612.82
2023-04-09T16:09:55.528Z,99609.55
2023-04-09T16:12:25.089Z,99610.45
2023-04-09T16:14:54.631Z,99612.02
2023-04-09T16:17:24.132Z,99610.06
2023-04-09T16:19:52.546Z,99611.21
2023-04-09T16:22:21.635Z,99611.69
2023-04-09T16:24:50.390Z,99610.02
2023-04-09T16:27:18.907Z,99612.52
2023-04-09T16:29:48.016Z,99611.13
2023-04-09T16:32:16.957Z,99607.90
2023-04-09T16:34:46.086Z,99611.54
2023-04-09T16:37:15.062Z,99608.39
2023-04-09T16:39:43.537Z,99607.92
2023-04-09T16:42:12.494Z,99602.90
2023-04-09T16:44:41.844Z,99602.55
2023-04-09T16:47:10.300Z,99603.73
2023-04-09T16:49:39.022Z,99606.11
2023-04-09T16:52:08.504Z,99602.95
2023-04-09T16:54:36.939Z,99608.14
2023-04-09T16:57:05.984Z,99607.41
2023-04-09T16:59:35.034Z,99604.86
2023-04-09T17:02:03.698Z,99609.39
2023-04-09T17:04:52.713Z,99609.20
2023-04-09T17:07:46.839Z,99609.93
2023-04-09T17:10:36.862Z,99611.61
2023-04-09T17:13:27.662Z,99611.23
2023-04-09T17:16:15.073Z,99610.93
2023-04-09T17:19:07.680Z,99609.48
2023-04-09T17:21:59.802Z,99615.39
2023-04-09T17:24:45.431Z,99615.66
2023-04-09T17:27:38.473Z,99616.20
2023-04-09T17:30:46.755Z,99618.09
2023-04-09T17:33:34.543Z,99615.79
2023-04-09T17:36:26.189Z,99614.99
2023-04-09T17:39:14.182Z,99619.08
2023-04-09T17:42:06.221Z,99621.77
2023-04-09T17:44:44.356Z,99624.08
2023-04-09T17:47:15.384Z,99624.19
2023-04-09T17:49:46.243Z,99627.00
2023-04-09T17:52:16.604Z,99626.77
2023-04-09T17:54:45.704Z,99628.31
2023-04-09T17:57:14.354Z,99629.08
2023-04-09T17:59:43.768Z,99630.36
2023-04-09T18:02:12.928Z,99631.73
2023-04-09T18:04:42.208Z,99632.40
2023-04-09T18:07:11.484Z,99628.85
2023-04-09T18:09:40.788Z,99632.48
2023-04-09T18:12:10.205Z,99632.74
2023-04-09T18:14:39.461Z,99634.09
2023-04-09T18:17:07.969Z,99635.24
2023-04-09T18:19:36.902Z,99639.11
2023-04-09T18:22:06.564Z,99639.35
2023-04-09T18:24:35.885Z,99640.91
2023-04-09T18:27:04.554Z,99644.56
2023-04-09T18:29:33.921Z,99647.21
2023-04-09T18:32:02.620Z,99647.20
2023-04-09T18:34:31.371Z,99648.67
2023-04-09T18:37:00.064Z,99648.97
2023-04-09T18:39:31.182Z,99650.64
2023-04-09T18:42:00.389Z,99654.66
2023-04-09T18:44:29.297Z,99654.23
2023-04-09T18:46:59.672Z,99655.96
2023-04-09T18:49:29.039Z,99658.13
2023-04-09T18:51:57.913Z,99661.23
2023-04-09T18:54:27.097Z,99661.05
2023-04-09T18:56:57.841Z,99659.66
2023-04-09T18:59:26.655Z,99660.54
2023-04-09T19:01:56.219Z,99663.48
2023-04-09T19:04:28.741Z,99663.30
2023-04-09T19:06:58.029Z,99661.49
2023-04-09T19:09:26.454Z,99657.27
2023-04-09T19:11:55.520Z,99659.34
2023-04-09T19:14:27.710Z,99660.20
2023-04-09T19:16:57.701Z,99661.42
2023-04-09T19:19:26.801Z,99659.63
2023-04-09T19:21:55.615Z,99663.02
2023-04-09T19:24:25.681Z,99666.70
2023-04-09T19:26:55.324Z,99669.17
2023-04-09T19:29:24.422Z,99668.31
2023-04-09T19:31:54.457Z,99667.63
2023-04-09T19:34:23.602Z,99669.88
2023-04-09T19:36:52.343Z,99668.60
2023-04-09T19:39:21.434Z,99673.73
2023-04-09T19:41:50.647Z,99674.05
2023-04-09T19:44:19.422Z,99676.92
2023-04-09T19:46:48.742Z,99676.41
2023-04-09T19:49:17.608Z,99675.55
2023-04-09T19:51:46.062Z,99678.82
2023-04-09T19:54:17.199Z,99678.14
2023-04-09T19:56:46.245Z,99677.95
2023-04-09T19:59:15.038Z,99681.38
2023-04-09T20:01:44.305Z,99678.40
2023-04-09T20:04:13.438Z,99681.30
2023-04-09T20:06:43.547Z,99682.42
2023-04-09T20:09:13.014Z,99680.13
2023-04-09T20:11:42.459Z,99679.85
2023-04-09T20:14:12.408Z,99676.66
2023-04-09T20:16:41.257Z,99676.44
2023-04-09T20:19:09.932Z,99679.39
2023-04-09T20:21:38.721Z,99679.83
2023-04-09T20:24:07.936Z,99678.60
2023-04-09T20:26:36.845Z,99678.98
2023-04-09T20:29:05.670Z,99680.60
2023-04-09T20:31:35.763Z,99681.09
2023-04-09T20:34:05.007Z,99682.38
2023-04-09T20:36:34.835Z,99683.73
2023-04-09T20:39:05.156Z,99687.23
2023-04-09T20:41:34.029Z,99680.51
2023-04-09T20:44:02.725Z,99676.40
2023-04-09T20:46:31.921Z,99676.52
2023-04-09T20:49:01.868Z,99672.13
2023-04-09T20:51:33.462Z,99672.27
2023-04-09T20:54:02.815Z,99674.64
2023-04-09T20:56:32.375Z,99674.69
2023-04-09T20:59:02.110Z,99675.42
2023-04-09T21:01:32.706Z,99676.07
2023-04-09T21:04:01.215Z,99675.64
2023-04-09T21:06:29.708Z,99677.13
2023-04-09T21:08:59.876Z,99673.48
2023-04-09T21:11:29.291Z,99672.45
2023-04-09T21:13:58.354Z,99674.96
2023-04-09T21:16:30.408Z,99674.20
2023-04-09T21:18:59.387Z,99672.69
2023-04-09T21:21:28.632Z,99672.21
2023-04-09T21:23:57.727Z,99671.61
2023-04-09T21:26:26.629Z,99672.77
2023-04-09T21:28:55.514Z,99672.30
2023-04-09T21:31:24.739Z,99672.59
2023-04-09T21:33:53.685Z,99674.34
2023-04-09T21:36:22.300Z,99675.78
2023-04-09T21:38:51.440Z,99676.98
2023-04-09T21:41:20.184Z,99676.84
2023-04-09T21:43:49.288Z,99675.39
2023-04-09T21:46:18.462Z,99677.89
2023-04-09T21:48:47.110Z,99673.50
2023-04-09T21:51:15.943Z,99675.86
2023-04-09T21:53:45.108Z,99677.69
2023-04-09T21:56:13.602Z,99676.12
2023-04-09T21:58:42.438Z,99677.52
2023-04-09T22:01:22.416Z,99676.00
2023-04-09T22:04:00.594Z,99673.81
2023-04-09T22:06:30.264Z,99671.43
2023-04-09T22:08:58.904Z,99672.02
2023-04-09T22:11:28.564Z,99670.48
2023-04-09T22:13:58.654Z,99668.40
2023-04-09T22:16:27.610Z,99670.63
2023-04-09T22:18:57.037Z,99670.56
2023-04-09T22:21:27.309Z,99672.96
2023-04-09T22:23:56.217Z,99674.52
2023-04-09T22:26:24.855Z,99670.27
2023-04-09T22:28:54.312Z,99672.02
2023-04-09T22:31:23.262Z,99674.59
2023-04-09T22:33:51.915Z,99673.73
2023-04-09T22:36:22.160Z,99676.08
2023-04-09T22:38:52.137Z,99674.94
2023-04-09T22:41:21.560Z,99672.51
2023-04-09T22:43:51.095Z,99676.90
2023-04-09T22:46:20.157Z,99676.81
2023-04-09T22:48:49.956Z,99673.91
2023-04-09T22:51:18.995Z,99673.05
2023-04-09T22:53:47.770Z,99673.17
2023-04-09T22:56:16.311Z,99672.13
2023-04-09T22:58:44.931Z,99674.52
2023-04-09T23:01:13.880Z,99671.14
2023-04-09T23:03:42.380Z,99669.02
2023-04-09T23:06:11.404Z,99670.71
2023-04-09T23:08:40.853Z,99673.55
2023-04-09T23:11:11.001Z,99675.14
2023-04-09T23:13:40.270Z,99677.57
2023-04-09T23:16:09.960Z,99682.19
2023-04-09T23:18:39.107Z,99685.66
2023-04-09T23:21:09.718Z,99683.52
2023-04-09T23:23:39.278Z,99679.64
2023-04-09T23:26:08.160Z,99680.73
2023-04-09T23:28:37.905Z,99675.58
2023-04-09T23:31:06.522Z,99674.95
2023-04-09T23:33:35.267Z,99669.10
2023-04-09T23:36:05.049Z,99665.49
2023-04-09T23:38:33.608Z,99666.52
2023-04-09T23:41:02.585Z,99663.60
2023-04-09T23:43:31.817Z,99662.61
2023-04-09T23:46:00.327Z,99659.85
2023-04-09T23:48:29.036Z,99653.23
2023-04-09T23:50:58.024Z,99648.58
2023-04-09T23:53:26.704Z,99651.98
2023-04-09T23:55:55.561Z,99653.66
2023-04-09T23:58:24.619Z,99654.35
